createdAt,value
2023-10-25T00:00:22.277Z,46.86
2023-10-25T00:02:50.044Z,46.58
2023-10-25T00:05:17.746Z,46.91
2023-10-25T00:07:45.557Z,46.64
2023-10-25T00:10:13.225Z,46.71
2023-10-25T00:12:40.983Z,47.04
2023-10-25T00:15:08.647Z,47.26
2023-10-25T00:17:36.246Z,47.01
2023-10-25T00:20:04.014Z,47.20
2023-10-25T00:22:31.631Z,46.69
2023-10-25T00:24:59.522Z,46.67
2023-10-25T00:27:27.295Z,46.89
2023-10-25T00:29:54.946Z,47.15
2023-10-25T00:32:22.737Z,46.59
2023-10-25T00:34:50.422Z,46.71
2023-10-25T00:37:18.056Z,46.64
2023-10-25T00:39:45.709Z,46.88
2023-10-25T00:42:13.333Z,46.84
2023-10-25T00:44:40.963Z,47.15
2023-10-25T00:47:08.727Z,47.18
2023-10-25T00:49:36.556Z,46.96
2023-10-25T00:52:04.214Z,47.13
2023-10-25T00:54:31.888Z,46.86
2023-10-25T00:56:59.539Z,46.77
2023-10-25T00:59:27.187Z,47.07
2023-10-25T01:01:54.892Z,46.99
2023-10-25T01:04:22.557Z,46.94
2023-10-25T01:06:50.200Z,46.63
2023-10-25T01:09:17.866Z,47.14
2023-10-25T01:11:45.539Z,47.08
2023-10-25T01:14:13.294Z,47.31
2023-10-25T01:16:41.106Z,47.27
2023-10-25T01:19:09.932Z,46.95
2023-10-25T01:21:37.758Z,46.90
2023-10-25T01:24:05.427Z,47.30
2023-10-25T01:26:33.061Z,46.67
2023-10-25T01:29:00.664Z,46.65
2023-10-25T01:31:28.324Z,46.58
2023-10-25T01:33:55.967Z,46.67
2023-10-25T01:36:23.668Z,47.02
2023-10-25T01:38:51.358Z,47.25
2023-10-25T01:41:19.056Z,46.59
2023-10-25T01:43:46.737Z,46.94
2023-10-25T01:46:14.446Z,46.72
2023-10-25T01:48:42.173Z,47.21
2023-10-25T01:51:10.982Z,46.64
2023-10-25T01:53:38.657Z,47.11
2023-10-25T01:56:06.778Z,47.33
2023-10-25T01:58:34.385Z,46.68
2023-10-25T02:01:02.114Z,46.76
2023-10-25T02:03:29.975Z,47.17
2023-10-25T02:05:57.742Z,46.98
2023-10-25T02:08:25.373Z,46.97
2023-10-25T02:10:53.028Z,47.24
2023-10-25T02:13:20.650Z,46.53
2023-10-25T02:15:48.422Z,46.97
2023-10-25T02:18:16.105Z,47.14
2023-10-25T02:20:43.844Z,47.21
2023-10-25T02:23:11.468Z,46.69
2023-10-25T02:25:39.249Z,47.01
2023-10-25T02:28:06.950Z,47.12
2023-10-25T02:30:34.865Z,46.78
2023-10-25T02:33:02.564Z,46.57
2023-10-25T02:35:30.341Z,47.16
2023-10-25T02:37:57.948Z,47.05
2023-10-25T02:40:25.620Z,47.20
2023-10-25T02:42:53.218Z,46.55
2023-10-25T02:45:20.930Z,46.60
2023-10-25T02:47:48.643Z,47.21
2023-10-25T02:50:16.708Z,46.81
2023-10-25T02:52:47.699Z,47.06
2023-10-25T02:55:16.272Z,47.10
2023-10-25T02:57:43.994Z,46.62
2023-10-25T03:00:12.301Z,46.52
2023-10-25T03:02:40.039Z,46.65
2023-10-25T03:05:07.774Z,47.11
2023-10-25T03:07:35.477Z,47.24
2023-10-25T03:10:03.450Z,46.65
2023-10-25T03:12:31.403Z,46.69
2023-10-25T03:14:59.121Z,46.72
2023-10-25T03:17:26.749Z,46.70
2023-10-25T03:19:54.433Z,46.63
2023-10-25T03:22:22.172Z,46.41
2023-10-25T03:24:49.808Z,47.25
2023-10-25T03:27:17.483Z,46.90
2023-10-25T03:29:46.900Z,47.20
2023-10-25T03:32:14.548Z,46.95
2023-10-25T03:34:42.291Z,47.05
2023-10-25T03:37:09.949Z,47.15
2023-10-25T03:39:37.778Z,46.76
2023-10-25T03:42:05.850Z,46.90
2023-10-25T03:44:33.528Z,46.80
2023-10-25T03:47:01.145Z,46.74
2023-10-25T03:49:28.925Z,46.58
2023-10-25T03:51:56.629Z,47.04
2023-10-25T03:54:24.302Z,46.98
2023-10-25T03:56:52.032Z,47.13
2023-10-25T03:59:19.615Z,46.76
2023-10-25T04:01:47.305Z,46.49
2023-10-25T04:04:15.054Z,46.74
2023-10-25T04:06:42.744Z,46.59
2023-10-25T04:09:10.681Z,46.75
2023-10-25T04:11:38.297Z,46.81
2023-10-25T04:14:05.951Z,47.26
2023-10-25T04:16:33.632Z,46.79
2023-10-25T04:19:01.489Z,47.26
2023-10-25T04:21:29.104Z,47.57
2023-10-25T04:23:57.119Z,46.98
2023-10-25T04:26:24.918Z,47.50
2023-10-25T04:28:52.617Z,46.87
2023-10-25T04:31:22.217Z,47.10
2023-10-25T04:33:49.932Z,46.98
2023-10-25T04:36:17.604Z,47.51
2023-10-25T04:38:47.206Z,47.13
2023-10-25T04:41:15.010Z,47.08
2023-10-25T04:43:43.972Z,47.14
2023-10-25T04:46:11.740Z,47.39
2023-10-25T04:48:39.429Z,47.42
2023-10-25T04:51:08.633Z,47.34
2023-10-25T04:53:36.352Z,47.46
2023-10-25T04:56:04.128Z,47.20
2023-10-25T04:58:31.753Z,47.63
2023-10-25T05:00:59.555Z,47.58
2023-10-25T05:03:27.520Z,47.34
2023-10-25T05:05:56.228Z,47.63
2023-10-25T05:08:23.927Z,47.54
2023-10-25T05:10:51.660Z,47.00
2023-10-25T05:13:19.292Z,47.50
2023-10-25T05:15:46.996Z,47.12
2023-10-25T05:18:14.675Z,47.17
2023-10-25T05:20:42.744Z,47.48
2023-10-25T05:23:10.399Z,46.60
2023-10-25T05:25:38.023Z,46.93
2023-10-25T05:28:05.723Z,47.50
2023-10-25T05:30:33.411Z,46.91
2023-10-25T05:33:01.030Z,46.93
2023-10-25T05:35:28.653Z,46.80
2023-10-25T05:37:56.260Z,47.44
2023-10-25T05:40:23.928Z,47.53
2023-10-25T05:42:51.587Z,47.12
2023-10-25T05:45:19.277Z,47.15
2023-10-25T05:47:46.953Z,47.50
2023-10-25T05:50:14.686Z,47.40
2023-10-25T05:52:45.565Z,46.76
2023-10-25T05:55:14.215Z,47.12
2023-10-25T05:57:41.957Z,47.07
2023-10-25T06:00:09.591Z,46.86
2023-10-25T06:02:37.220Z,46.61
2023-10-25T06:05:07.995Z,47.21
2023-10-25T06:07:39.119Z,47.32
2023-10-25T06:10:06.861Z,47.10
2023-10-25T06:12:34.628Z,47.33
2023-10-25T06:15:02.238Z,47.06
2023-10-25T06:17:29.920Z,46.51
2023-10-25T06:19:57.612Z,46.51
2023-10-25T06:22:25.278Z,46.66
2023-10-25T06:24:53.008Z,46.54
2023-10-25T06:27:21.580Z,46.84
2023-10-25T06:29:49.235Z,47.16
2023-10-25T06:32:16.950Z,46.37
2023-10-25T06:34:44.910Z,46.81
2023-10-25T06:37:12.788Z,46.70
2023-10-25T06:39:40.433Z,46.51
2023-10-25T06:42:08.074Z,46.91
2023-10-25T06:44:36.091Z,47.01
2023-10-25T06:47:05.224Z,47.11
2023-10-25T06:49:33.027Z,46.73
2023-10-25T06:52:00.720Z,46.55
2023-10-25T06:54:29.083Z,46.66
2023-10-25T06:56:56.921Z,46.58
2023-10-25T06:59:24.541Z,47.00
2023-10-25T07:01:53.860Z,46.91
2023-10-25T07:04:21.657Z,46.51
2023-10-25T07:06:49.347Z,45.90
2023-10-25T07:09:17.044Z,46.75
2023-10-25T07:11:44.682Z,46.67
2023-10-25T07:14:12.453Z,46.62
2023-10-25T07:16:41.296Z,46.56
2023-10-25T07:19:09.252Z,46.84
2023-10-25T07:21:36.924Z,46.53
2023-10-25T07:24:04.614Z,47.02
2023-10-25T07:26:32.226Z,47.03
2023-10-25T07:28:59.860Z,46.79
2023-10-25T07:31:27.673Z,46.58
2023-10-25T07:33:55.389Z,46.70
2023-10-25T07:36:23.054Z,46.42
2023-10-25T07:38:50.732Z,46.55
2023-10-25T07:41:18.338Z,46.94
2023-10-25T07:43:46.158Z,46.40
2023-10-25T07:46:13.980Z,46.71
2023-10-25T07:48:41.631Z,46.62
2023-10-25T07:51:09.279Z,47.07
2023-10-25T07:53:36.948Z,47.01
2023-10-25T07:58:35.401Z,46.61
2023-10-25T08:01:03.486Z,46.91
2023-10-25T08:03:31.288Z,46.83
2023-10-25T08:05:59.063Z,46.74
2023-10-25T08:08:26.789Z,47.00
2023-10-25T08:10:55.273Z,46.26
2023-10-25T08:13:22.870Z,47.00
2023-10-25T08:15:50.752Z,46.75
2023-10-25T08:18:18.563Z,47.04
2023-10-25T08:20:50.253Z,46.97
2023-10-25T08:23:20.757Z,46.95
2023-10-25T08:25:56.467Z,46.43
2023-10-25T08:28:24.105Z,46.26
2023-10-25T08:30:51.892Z,46.76
2023-10-25T08:33:19.665Z,46.53
2023-10-25T08:35:47.502Z,46.92
2023-10-25T08:38:15.264Z,46.54
2023-10-25T08:40:42.992Z,46.77
2023-10-25T08:43:11.231Z,46.79
2023-10-25T08:45:38.940Z,46.49
2023-10-25T08:48:07.068Z,46.99
2023-10-25T08:50:36.059Z,46.56
2023-10-25T08:53:03.779Z,46.64
2023-10-25T08:55:31.426Z,46.81
2023-10-25T08:57:59.079Z,46.77
2023-10-25T09:00:43.347Z,46.79
2023-10-25T09:03:15.412Z,46.54
2023-10-25T09:05:44.636Z,46.11
2023-10-25T09:08:13.900Z,47.00
2023-10-25T09:10:41.627Z,46.29
2023-10-25T09:13:09.229Z,46.77
2023-10-25T09:15:37.177Z,46.36
2023-10-25T09:18:04.841Z,46.91
2023-10-25T09:20:33.768Z,46.40
2023-10-25T09:23:01.562Z,46.84
2023-10-25T09:25:29.157Z,46.33
2023-10-25T09:27:57.535Z,46.21
2023-10-25T09:30:28.010Z,46.40
2023-10-25T09:32:56.039Z,46.59
2023-10-25T09:35:23.877Z,47.09
2023-10-25T09:37:51.544Z,46.47
2023-10-25T09:40:19.204Z,46.40
2023-10-25T09:42:49.862Z,46.73
2023-10-25T09:45:17.543Z,46.97
2023-10-25T09:47:45.284Z,46.94
2023-10-25T09:50:13.009Z,46.84
2023-10-25T09:52:40.733Z,46.45
2023-10-25T09:55:08.630Z,46.81
2023-10-25T09:57:36.247Z,46.88
2023-10-25T10:00:05.917Z,46.48
2023-10-25T10:02:33.850Z,46.85
2023-10-25T10:05:01.685Z,46.49
2023-10-25T10:07:29.462Z,46.40
2023-10-25T10:09:57.273Z,46.68
2023-10-25T10:12:24.965Z,46.63
2023-10-25T10:14:53.552Z,46.85
2023-10-25T10:17:21.400Z,46.21
2023-10-25T10:19:49.167Z,46.70
2023-10-25T10:22:17.760Z,46.72
2023-10-25T10:24:44.720Z,46.24
2023-10-25T10:27:12.607Z,46.85
2023-10-25T10:29:40.755Z,46.43
2023-10-25T10:32:08.867Z,46.85
2023-10-25T10:34:36.540Z,46.36
2023-10-25T10:37:04.170Z,46.27
2023-10-25T10:39:31.824Z,46.19
2023-10-25T10:42:02.277Z,46.57
2023-10-25T10:44:29.924Z,46.38
2023-10-25T10:46:57.693Z,46.48
2023-10-25T10:49:25.429Z,46.49
2023-10-25T10:51:53.613Z,46.03
2023-10-25T10:54:21.334Z,46.70
2023-10-25T10:56:49.408Z,46.10
2023-10-25T10:59:17.121Z,46.19
2023-10-25T11:01:45.202Z,46.55
2023-10-25T11:04:13.184Z,46.16
2023-10-25T11:06:41.035Z,46.18
2023-10-25T11:09:09.485Z,46.77
2023-10-25T11:11:37.875Z,46.59
2023-10-25T11:14:05.616Z,46.02
2023-10-25T11:16:33.382Z,46.56
2023-10-25T11:19:01.113Z,45.98
2023-10-25T11:21:28.801Z,46.33
2023-10-25T11:23:56.544Z,46.11
2023-10-25T11:26:24.342Z,46.04
2023-10-25T11:28:52.251Z,46.22
2023-10-25T11:31:19.921Z,46.53
2023-10-25T11:33:47.707Z,46.02
2023-10-25T11:36:15.372Z,46.65
2023-10-25T11:38:43.133Z,46.27
2023-10-25T11:41:10.799Z,46.05
2023-10-25T11:43:38.486Z,46.66
2023-10-25T11:46:06.317Z,46.07
2023-10-25T11:48:34.107Z,46.58
2023-10-25T11:51:01.928Z,46.61
2023-10-25T11:53:29.660Z,46.65
2023-10-25T11:56:00.068Z,46.39
2023-10-25T11:58:27.811Z,46.59
2023-10-25T12:00:56.353Z,46.09
2023-10-25T12:03:24.231Z,46.51
2023-10-25T12:05:52.024Z,46.32
2023-10-25T12:08:19.725Z,45.94
2023-10-25T12:10:47.419Z,45.96
2023-10-25T12:13:15.188Z,45.95
2023-10-25T12:15:42.891Z,46.44
2023-10-25T12:18:10.650Z,46.15
2023-10-25T12:20:38.485Z,45.97
2023-10-25T12:23:06.322Z,46.63
2023-10-25T12:25:35.955Z,46.42
2023-10-25T12:28:03.965Z,46.15
2023-10-25T12:30:31.774Z,46.36
2023-10-25T12:32:59.526Z,46.02
2023-10-25T12:35:27.292Z,46.08
2023-10-25T12:37:55.157Z,45.95
2023-10-25T12:40:22.857Z,46.60
2023-10-25T12:42:52.497Z,46.48
2023-10-25T12:45:22.588Z,46.29
2023-10-25T12:47:50.356Z,46.38
2023-10-25T12:50:18.363Z,46.11
2023-10-25T12:52:46.020Z,46.39
2023-10-25T12:55:13.740Z,46.20
2023-10-25T12:57:41.445Z,46.20
2023-10-25T13:00:10.420Z,45.95
2023-10-25T13:02:38.567Z,46.23
2023-10-25T13:05:06.354Z,45.87
2023-10-25T13:07:34.061Z,46.36
2023-10-25T13:10:01.731Z,46.34
2023-10-25T13:12:29.476Z,46.07
2023-10-25T13:14:57.213Z,45.82
2023-10-25T13:17:24.913Z,46.41
2023-10-25T13:19:52.558Z,46.53
2023-10-25T13:22:21.617Z,46.25
2023-10-25T13:24:50.604Z,45.78
2023-10-25T13:27:18.287Z,46.55
2023-10-25T13:29:45.137Z,46.47
2023-10-25T13:32:12.925Z,45.94
2023-10-25T13:34:40.836Z,46.18
2023-10-25T13:37:10.018Z,46.25
2023-10-25T13:39:38.888Z,46.43
2023-10-25T13:42:06.590Z,46.16
2023-10-25T13:44:34.257Z,45.76
2023-10-25T13:47:01.970Z,46.08
2023-10-25T13:49:29.563Z,46.07
2023-10-25T13:51:57.206Z,45.65
2023-10-25T13:54:24.896Z,45.96
2023-10-25T13:56:52.659Z,46.42
2023-10-25T13:59:20.261Z,46.18
2023-10-25T14:01:48.110Z,45.94
2023-10-25T14:04:17.056Z,45.75
2023-10-25T14:06:45.074Z,46.43
2023-10-25T14:09:13.162Z,45.87
2023-10-25T14:11:40.820Z,45.94
2023-10-25T14:14:08.570Z,46.13
2023-10-25T14:16:36.235Z,46.26
2023-10-25T14:19:04.321Z,46.35
2023-10-25T14:21:32.041Z,45.69
2023-10-25T14:23:59.852Z,45.81
2023-10-25T14:26:27.553Z,46.17
2023-10-25T14:28:55.192Z,45.87
2023-10-25T14:31:22.883Z,45.85
2023-10-25T14:33:50.609Z,45.74
2023-10-25T14:36:18.241Z,45.82
2023-10-25T14:38:46.358Z,46.34
2023-10-25T14:41:14.002Z,45.50
2023-10-25T14:43:41.909Z,46.06
2023-10-25T14:46:09.545Z,45.49
2023-10-25T14:48:37.220Z,46.20
2023-10-25T14:51:05.047Z,45.98
2023-10-25T14:53:32.994Z,46.00
2023-10-25T14:56:03.084Z,45.78
2023-10-25T14:58:30.933Z,45.76
2023-10-25T15:00:58.694Z,45.86
2023-10-25T15:03:26.525Z,45.55
2023-10-25T15:05:54.645Z,45.99
2023-10-25T15:08:22.493Z,46.17
2023-10-25T15:10:50.513Z,45.70
2023-10-25T15:13:18.277Z,45.02
2023-10-25T15:15:45.897Z,45.97
2023-10-25T15:18:13.622Z,46.06
2023-10-25T15:20:41.602Z,45.70
2023-10-25T15:23:09.294Z,45.51
2023-10-25T15:25:37.194Z,45.64
2023-10-25T15:28:06.397Z,46.01
2023-10-25T15:30:36.298Z,45.70
2023-10-25T15:33:07.173Z,45.64
2023-10-25T15:35:34.895Z,45.93
2023-10-25T15:38:02.848Z,45.64
2023-10-25T15:40:31.983Z,45.92
2023-10-25T15:42:59.938Z,46.01
2023-10-25T15:45:27.635Z,46.23
2023-10-25T15:47:55.553Z,45.36
2023-10-25T15:50:23.408Z,45.71
2023-10-25T15:53:06.200Z,45.51
2023-10-25T15:55:38.984Z,45.98
2023-10-25T15:58:06.775Z,45.76
2023-10-25T16:00:34.462Z,45.73
2023-10-25T16:03:03.285Z,45.58
2023-10-25T16:05:31.041Z,45.57
2023-10-25T16:07:58.643Z,45.50
2023-10-25T16:10:26.363Z,45.64
2023-10-25T16:12:54.080Z,45.65
2023-10-25T16:15:21.779Z,46.04
2023-10-25T16:17:51.425Z,46.06
2023-10-25T16:20:19.108Z,45.40
2023-10-25T16:22:46.790Z,45.38
2023-10-25T16:25:14.744Z,45.42
2023-10-25T16:27:42.393Z,45.28
2023-10-25T16:30:10.080Z,45.61
2023-10-25T16:32:37.769Z,46.04
2023-10-25T16:35:05.443Z,45.96
2023-10-25T16:37:33.083Z,45.58
2023-10-25T16:40:03.707Z,46.14
2023-10-25T16:42:32.625Z,45.72
2023-10-25T16:45:00.497Z,45.56
2023-10-25T16:47:28.288Z,45.54
2023-10-25T16:49:56.005Z,46.36
2023-10-25T16:52:23.815Z,45.83
2023-10-25T16:54:51.457Z,45.70
2023-10-25T16:57:19.179Z,45.78
2023-10-25T16:59:47.007Z,46.09
2023-10-25T17:02:14.699Z,45.88
2023-10-25T17:04:42.481Z,46.53
2023-10-25T17:07:10.783Z,46.19
2023-10-25T17:09:38.403Z,46.06
2023-10-25T17:12:08.590Z,46.08
2023-10-25T17:14:36.375Z,45.80
2023-10-25T17:17:04.069Z,46.12
2023-10-25T17:19:31.692Z,45.40
2023-10-25T17:21:59.459Z,46.04
2023-10-25T17:24:27.803Z,45.67
2023-10-25T17:26:55.562Z,45.38
2023-10-25T17:29:23.275Z,45.63
2023-10-25T17:31:50.997Z,46.04
2023-10-25T17:34:18.729Z,45.54
2023-10-25T17:36:46.410Z,45.77
2023-10-25T17:39:14.107Z,46.20
2023-10-25T17:41:41.826Z,45.87
2023-10-25T17:44:09.564Z,45.53
2023-10-25T17:46:37.311Z,46.20
2023-10-25T17:49:05.022Z,45.43
2023-10-25T17:51:32.686Z,45.50
2023-10-25T17:54:00.368Z,45.70
2023-10-25T17:56:28.126Z,46.07
2023-10-25T17:58:55.760Z,45.96
2023-10-25T18:01:23.535Z,45.59
2023-10-25T18:03:51.300Z,45.55
2023-10-25T18:06:19.257Z,46.07
2023-10-25T18:08:46.980Z,46.02
2023-10-25T18:11:16.663Z,46.00
2023-10-25T18:13:59.687Z,45.70
2023-10-25T18:16:28.375Z,46.67
2023-10-25T18:18:56.201Z,45.76
2023-10-25T18:21:23.919Z,45.52
2023-10-25T18:23:54.100Z,45.63
2023-10-25T18:26:22.097Z,46.00
2023-10-25T18:28:49.793Z,46.49
2023-10-25T18:31:55.940Z,45.85
2023-10-25T18:34:05.797Z,46.23
2023-10-25T18:36:33.693Z,45.97
2023-10-25T18:39:02.186Z,45.54
2023-10-25T18:41:29.936Z,46.00
2023-10-25T18:43:57.732Z,45.97
2023-10-25T18:46:25.408Z,46.07
2023-10-25T18:48:53.094Z,45.79
2023-10-25T18:51:20.712Z,46.34
2023-10-25T18:53:48.363Z,46.20
2023-10-25T18:56:16.043Z,45.98
2023-10-25T18:58:43.709Z,46.02
2023-10-25T19:01:11.392Z,46.14
2023-10-25T19:03:39.182Z,45.82
2023-10-25T19:06:24.477Z,45.97
2023-10-25T19:08:56.610Z,46.32
2023-10-25T19:11:26.136Z,46.38
2023-10-25T19:13:54.876Z,45.74
2023-10-25T19:16:24.484Z,46.20
2023-10-25T19:18:52.211Z,46.09
2023-10-25T19:21:19.859Z,46.08
2023-10-25T19:23:50.554Z,46.29
2023-10-25T19:26:18.430Z,45.81
2023-10-25T19:28:46.574Z,45.83
2023-10-25T19:31:14.242Z,46.33
2023-10-25T19:33:41.989Z,46.32
2023-10-25T19:36:09.768Z,46.12
2023-10-25T19:38:37.471Z,46.23
2023-10-25T19:41:05.493Z,46.19
2023-10-25T19:43:33.430Z,45.77
2023-10-25T19:46:02.061Z,45.84
2023-10-25T19:48:29.842Z,45.96
2023-10-25T19:50:57.890Z,46.33
2023-10-25T19:53:25.949Z,45.58
2023-10-25T19:55:53.852Z,45.77
2023-10-25T19:58:21.507Z,45.77
2023-10-25T20:00:49.289Z,45.80
2023-10-25T20:03:17.831Z,46.36
2023-10-25T20:05:45.727Z,46.18
2023-10-25T20:08:13.403Z,45.95
2023-10-25T20:10:41.384Z,46.10
2023-10-25T20:13:09.131Z,45.99
2023-10-25T20:15:37.705Z,46.17
2023-10-25T20:18:06.292Z,45.81
2023-10-25T20:20:33.970Z,46.21
2023-10-25T20:23:01.625Z,46.45
2023-10-25T20:25:29.427Z,45.99
2023-10-25T20:27:57.453Z,46.06
2023-10-25T20:30:25.342Z,45.90
2023-10-25T20:32:53.061Z,45.80
2023-10-25T20:35:20.770Z,46.40
2023-10-25T20:37:48.645Z,45.91
2023-10-25T20:40:16.373Z,45.91
2023-10-25T20:42:47.088Z,46.34
2023-10-25T20:45:14.800Z,45.98
2023-10-25T20:47:42.527Z,46.19
2023-10-25T20:50:10.208Z,45.75
2023-10-25T20:52:37.928Z,46.08
2023-10-25T20:55:06.877Z,46.35
2023-10-25T20:57:36.703Z,45.89
2023-10-25T21:00:07.021Z,45.72
2023-10-25T21:02:34.737Z,45.78
2023-10-25T21:05:02.370Z,46.27
2023-10-25T21:07:29.984Z,45.99
2023-10-25T21:09:57.712Z,45.98
2023-10-25T21:12:25.364Z,46.02
2023-10-25T21:14:53.010Z,45.96
2023-10-25T21:17:20.662Z,46.56
2023-10-25T21:19:48.371Z,46.58
2023-10-25T21:22:16.018Z,46.13
2023-10-25T21:24:43.933Z,46.50
2023-10-25T21:27:11.760Z,45.75
2023-10-25T21:29:39.470Z,46.14
2023-10-25T21:32:07.106Z,45.98
2023-10-25T21:34:34.750Z,46.23
2023-10-25T21:37:02.555Z,46.06
2023-10-25T21:39:30.171Z,45.88
2023-10-25T21:41:59.111Z,46.46
2023-10-25T21:44:26.757Z,45.97
2023-10-25T21:46:54.718Z,45.89
2023-10-25T21:49:22.394Z,46.14
2023-10-25T21:51:50.346Z,46.03
2023-10-25T21:54:17.991Z,45.99
2023-10-25T21:56:45.734Z,45.97
2023-10-25T21:59:50.492Z,46.08
2023-10-25T22:02:02.111Z,46.42
2023-10-25T22:04:29.860Z,45.79
2023-10-25T22:06:58.279Z,46.55
2023-10-25T22:09:26.185Z,45.90
2023-10-25T22:11:54.029Z,46.52
2023-10-25T22:14:22.379Z,46.33
2023-10-25T22:16:50.039Z,45.84
2023-10-25T22:19:17.918Z,45.77
2023-10-25T22:21:45.537Z,46.18
2023-10-25T22:24:16.351Z,46.03
2023-10-25T22:26:44.649Z,45.80
2023-10-25T22:29:17.374Z,45.78
2023-10-25T22:31:45.579Z,45.74
2023-10-25T22:34:18.266Z,46.32
2023-10-25T22:36:49.894Z,45.89
2023-10-25T22:39:18.265Z,46.55
2023-10-25T22:41:46.489Z,46.43
2023-10-25T22:44:14.557Z,45.95
2023-10-25T22:46:42.247Z,46.35
2023-10-25T22:49:09.975Z,46.04
2023-10-25T22:51:37.690Z,46.12
2023-10-25T22:54:05.513Z,45.84
2023-10-25T22:56:34.587Z,45.87
2023-10-25T22:59:03.018Z,46.29
2023-10-25T23:01:30.666Z,46.41
2023-10-25T23:03:58.574Z,45.95
2023-10-25T23:06:26.461Z,46.55
2023-10-25T23:08:54.199Z,46.43
2023-10-25T23:11:21.932Z,46.28
2023-10-25T23:13:49.559Z,46.29
2023-10-25T23:16:17.552Z,46.43
2023-10-25T23:18:47.552Z,46.30
2023-10-25T23:21:15.318Z,45.89
2023-10-25T23:23:43.220Z,45.89
2023-10-25T23:26:11.042Z,46.60
2023-10-25T23:28:38.663Z,46.06
2023-10-25T23:31:06.438Z,46.41
2023-10-25T23:33:34.165Z,46.34
2023-10-25T23:36:02.396Z,45.81
2023-10-25T23:38:30.142Z,46.46
2023-10-25T23:40:57.816Z,45.94
2023-10-25T23:43:25.546Z,46.60
2023-10-25T23:45:53.154Z,46.54
2023-10-25T23:48:20.942Z,45.87
2023-10-25T23:50:48.789Z,46.35
2023-10-25T23:53:16.481Z,46.31
2023-10-25T23:55:44.125Z,46.34
2023-10-25T23:58:11.784Z,46.51
